sensor_id;sensor_type;location;lat;lon;timestamp;P1;durP1;ratioP1;P2;durP2;ratioP2
3095;SDS011;1558;42.700;23.360;2023-04-09T00:02:00;2.70;;;2.50;;
3095;SDS011;1558;42.700;23.360;2023-04-09T00:04:28;2.33;;;2.13;;
3095;SDS011;1558;42.700;23.360;2023-04-09T00:06:56;2.67;;;2.47;;
3095;SDS011;1558;42.700;23.360;2023-04-09T00:09:24;2.60;;;2.40;;
3095;SDS011;1558;42.700;23.360;2023-04-09T00:11:54;2.70;;;2.30;;
3095;SDS011;1558;42.700;23.360;2023-04-09T00:14:22;5.23;;;2.50;;
3095;SDS011;1558;42.700;23.360;2023-04-09T00:16:50;2.70;;;2.37;;
3095;SDS011;1558;42.700;23.360;2023-04-09T00:19:18;2.33;;;2.13;;
3095;SDS011;1558;42.700;23.360;2023-04-09T00:21:47;2.40;;;2.23;;
3095;SDS011;1558;42.700;23.360;2023-04-09T00:24:15;2.67;;;2.47;;
3095;SDS011;1558;42.700;23.360;2023-04-09T00:26:42;2.30;;;2.10;;
3095;SDS011;1558;42.700;23.360;2023-04-09T00:29:12;2.17;;;1.97;;
3095;SDS011;1558;42.700;23.360;2023-04-09T00:31:40;2.80;;;2.47;;
3095;SDS011;1558;42.700;23.360;2023-04-09T00:34:08;2.17;;;2.07;;
3095;SDS011;1558;42.700;23.360;2023-04-09T00:36:36;1.73;;;1.63;;
3095;SDS011;1558;42.700;23.360;2023-04-09T00:39:04;2.37;;;2.20;;
3095;SDS011;1558;42.700;23.360;2023-04-09T00:41:32;2.83;;;1.93;;
3095;SDS011;1558;42.700;23.360;2023-04-09T00:44:01;2.07;;;1.87;;
3095;SDS011;1558;42.700;23.360;2023-04-09T00:46:31;2.30;;;2.10;;
3095;SDS011;1558;42.700;23.360;2023-04-09T00:48:59;3.07;;;2.30;;
3095;SDS011;1558;42.700;23.360;2023-04-09T00:51:27;3.67;;;2.13;;
3095;SDS011;1558;42.700;23.360;2023-04-09T00:53:55;2.30;;;2.10;;
3095;SDS011;1558;42.700;23.360;2023-04-09T00:56:23;2.03;;;1.90;;
3095;SDS011;1558;42.700;23.360;2023-04-09T00:58:51;2.27;;;2.10;;
3095;SDS011;1558;42.700;23.360;2023-04-09T01:01:19;3.67;;;2.10;;
3095;SDS011;1558;42.700;23.360;2023-04-09T01:03:49;2.40;;;2.20;;
3095;SDS011;1558;42.700;23.360;2023-04-09T01:06:21;2.60;;;2.00;;
3095;SDS011;1558;42.700;23.360;2023-04-09T01:08:55;2.20;;;1.60;;
3095;SDS011;1558;42.700;23.360;2023-04-09T01:11:31;2.33;;;2.13;;
3095;SDS011;1558;42.700;23.360;2023-04-09T01:14:05;2.97;;;2.30;;
3095;SDS011;1558;42.700;23.360;2023-04-09T01:16:40;1.80;;;1.70;;
3095;SDS011;1558;42.700;23.360;2023-04-09T01:19:18;2.07;;;1.87;;
3095;SDS011;1558;42.700;23.360;2023-04-09T01:21:58;2.43;;;2.17;;
3095;SDS011;1558;42.700;23.360;2023-04-09T01:24:31;1.90;;;1.80;;
3095;SDS011;1558;42.700;23.360;2023-04-09T01:27:08;2.03;;;1.83;;
3095;SDS011;1558;42.700;23.360;2023-04-09T01:29:40;2.40;;;2.20;;
3095;SDS011;1558;42.700;23.360;2023-04-09T01:32:12;1.73;;;1.63;;
3095;SDS011;1558;42.700;23.360;2023-04-09T01:34:45;2.13;;;1.70;;
3095;SDS011;1558;42.700;23.360;2023-04-09T01:37:14;3.33;;;2.03;;
3095;SDS011;1558;42.700;23.360;2023-04-09T01:39:43;2.20;;;2.10;;
3095;SDS011;1558;42.700;23.360;2023-04-09T01:42:11;1.93;;;1.80;;
3095;SDS011;1558;42.700;23.360;2023-04-09T01:44:44;2.20;;;1.93;;
3095;SDS011;1558;42.700;23.360;2023-04-09T01:47:13;2.33;;;2.13;;
3095;SDS011;1558;42.700;23.360;2023-04-09T01:49:42;1.80;;;1.70;;
3095;SDS011;1558;42.700;23.360;2023-04-09T01:52:10;2.73;;;2.53;;
3095;SDS011;1558;42.700;23.360;2023-04-09T01:54:38;2.90;;;2.17;;
3095;SDS011;1558;42.700;23.360;2023-04-09T01:57:06;2.83;;;1.87;;
3095;SDS011;1558;42.700;23.360;2023-04-09T01:59:34;2.77;;;2.17;;
3095;SDS011;1558;42.700;23.360;2023-04-09T02:02:05;2.70;;;2.17;;
3095;SDS011;1558;42.700;23.360;2023-04-09T02:04:38;2.63;;;1.97;;
3095;SDS011;1558;42.700;23.360;2023-04-09T02:07:11;1.53;;;1.43;;
3095;SDS011;1558;42.700;23.360;2023-04-09T02:09:45;2.67;;;2.47;;
3095;SDS011;1558;42.700;23.360;2023-04-09T02:12:15;2.13;;;1.97;;
3095;SDS011;1558;42.700;23.360;2023-04-09T02:14:45;2.57;;;2.30;;
3095;SDS011;1558;42.700;23.360;2023-04-09T02:17:17;1.80;;;1.70;;
3095;SDS011;1558;42.700;23.360;2023-04-09T02:19:46;1.90;;;1.57;;
3095;SDS011;1558;42.700;23.360;2023-04-09T02:22:15;2.70;;;2.03;;
3095;SDS011;1558;42.700;23.360;2023-04-09T02:24:44;2.00;;;1.90;;
3095;SDS011;1558;42.700;23.360;2023-04-09T02:27:13;2.53;;;2.33;;
3095;SDS011;1558;42.700;23.360;2023-04-09T02:29:41;2.87;;;2.33;;
3095;SDS011;1558;42.700;23.360;2023-04-09T02:32:09;2.03;;;1.93;;
3095;SDS011;1558;42.700;23.360;2023-04-09T02:34:38;2.77;;;2.50;;
3095;SDS011;1558;42.700;23.360;2023-04-09T02:37:06;2.27;;;2.10;;
3095;SDS011;1558;42.700;23.360;2023-04-09T02:39:34;4.03;;;1.80;;
3095;SDS011;1558;42.700;23.360;2023-04-09T02:42:02;2.50;;;2.27;;
3095;SDS011;1558;42.700;23.360;2023-04-09T02:44:33;2.27;;;2.10;;
3095;SDS011;1558;42.700;23.360;2023-04-09T02:47:01;1.60;;;1.50;;
3095;SDS011;1558;42.700;23.360;2023-04-09T02:49:29;2.13;;;1.97;;
3095;SDS011;1558;42.700;23.360;2023-04-09T02:51:58;1.47;;;1.40;;
3095;SDS011;1558;42.700;23.360;2023-04-09T02:54:26;1.90;;;1.70;;
3095;SDS011;1558;42.700;23.360;2023-04-09T02:56:54;1.83;;;1.73;;
3095;SDS011;1558;42.700;23.360;2023-04-09T02:59:22;2.17;;;1.80;;
3095;SDS011;1558;42.700;23.360;2023-04-09T03:01:50;2.23;;;2.10;;
3095;SDS011;1558;42.700;23.360;2023-04-09T03:04:19;1.47;;;1.37;;
3095;SDS011;1558;42.700;23.360;2023-04-09T03:06:47;2.20;;;1.83;;
3095;SDS011;1558;42.700;23.360;2023-04-09T03:09:18;2.63;;;1.87;;
3095;SDS011;1558;42.700;23.360;2023-04-09T03:11:46;1.97;;;1.83;;
3095;SDS011;1558;42.700;23.360;2023-04-09T03:14:14;1.90;;;1.80;;
3095;SDS011;1558;42.700;23.360;2023-04-09T03:16:42;2.93;;;2.73;;
3095;SDS011;1558;42.700;23.360;2023-04-09T03:19:10;1.90;;;1.77;;
3095;SDS011;1558;42.700;23.360;2023-04-09T03:21:38;2.83;;;2.17;;
3095;SDS011;1558;42.700;23.360;2023-04-09T03:24:06;2.53;;;2.07;;
3095;SDS011;1558;42.700;23.360;2023-04-09T03:26:35;2.27;;;2.07;;
3095;SDS011;1558;42.700;23.360;2023-04-09T03:29:04;2.50;;;2.07;;
3095;SDS011;1558;42.700;23.360;2023-04-09T03:31:32;2.63;;;2.10;;
3095;SDS011;1558;42.700;23.360;2023-04-09T03:34:00;2.27;;;2.10;;
3095;SDS011;1558;42.700;23.360;2023-04-09T03:36:28;4.20;;;1.93;;
3095;SDS011;1558;42.700;23.360;2023-04-09T03:38:56;2.43;;;2.23;;
3095;SDS011;1558;42.700;23.360;2023-04-09T03:41:25;3.03;;;2.57;;
3095;SDS011;1558;42.700;23.360;2023-04-09T03:43:55;2.03;;;1.90;;
3095;SDS011;1558;42.700;23.360;2023-04-09T03:46:23;2.50;;;2.30;;
3095;SDS011;1558;42.700;23.360;2023-04-09T03:48:51;1.90;;;1.70;;
3095;SDS011;1558;42.700;23.360;2023-04-09T03:51:20;2.37;;;2.17;;
3095;SDS011;1558;42.700;23.360;2023-04-09T03:53:47;3.93;;;2.27;;
3095;SDS011;1558;42.700;23.360;2023-04-09T03:56:16;2.70;;;2.50;;
3095;SDS011;1558;42.700;23.360;2023-04-09T03:58:44;2.57;;;1.80;;
3095;SDS011;1558;42.700;23.360;2023-04-09T04:01:15;1.73;;;1.60;;
3095;SDS011;1558;42.700;23.360;2023-04-09T04:03:43;2.43;;;1.90;;
3095;SDS011;1558;42.700;23.360;2023-04-09T04:06:11;1.93;;;1.73;;
3095;SDS011;1558;42.700;23.360;2023-04-09T04:08:39;1.93;;;1.83;;
3095;SDS011;1558;42.700;23.360;2023-04-09T04:11:07;3.60;;;2.33;;
3095;SDS011;1558;42.700;23.360;2023-04-09T04:13:35;2.07;;;1.97;;
3095;SDS011;1558;42.700;23.360;2023-04-09T04:16:05;2.57;;;2.30;;
3095;SDS011;1558;42.700;23.360;2023-04-09T04:18:36;2.67;;;2.47;;
3095;SDS011;1558;42.700;23.360;2023-04-09T04:21:04;2.77;;;2.23;;
3095;SDS011;1558;42.700;23.360;2023-04-09T04:23:32;2.23;;;2.03;;
3095;SDS011;1558;42.700;23.360;2023-04-09T04:26:01;5.07;;;2.77;;
3095;SDS011;1558;42.700;23.360;2023-04-09T04:28:35;2.93;;;2.67;;
3095;SDS011;1558;42.700;23.360;2023-04-09T04:31:06;2.47;;;2.03;;
3095;SDS011;1558;42.700;23.360;2023-04-09T04:33:35;3.27;;;2.83;;
3095;SDS011;1558;42.700;23.360;2023-04-09T04:36:05;3.23;;;2.60;;
3095;SDS011;1558;42.700;23.360;2023-04-09T04:38:33;4.07;;;3.10;;
3095;SDS011;1558;42.700;23.360;2023-04-09T04:41:02;4.40;;;3.23;;
3095;SDS011;1558;42.700;23.360;2023-04-09T04:43:30;2.47;;;2.10;;
3095;SDS011;1558;42.700;23.360;2023-04-09T04:45:58;3.10;;;2.77;;
3095;SDS011;1558;42.700;23.360;2023-04-09T04:48:27;3.70;;;3.20;;
3095;SDS011;1558;42.700;23.360;2023-04-09T04:50:58;3.97;;;3.03;;
3095;SDS011;1558;42.700;23.360;2023-04-09T04:53:27;3.17;;;2.63;;
3095;SDS011;1558;42.700;23.360;2023-04-09T04:55:55;2.73;;;2.53;;
3095;SDS011;1558;42.700;23.360;2023-04-09T04:58:23;3.57;;;3.30;;
3095;SDS011;1558;42.700;23.360;2023-04-09T05:00:51;5.30;;;2.80;;
3095;SDS011;1558;42.700;23.360;2023-04-09T05:03:20;3.77;;;2.73;;
3095;SDS011;1558;42.700;23.360;2023-04-09T05:05:50;3.13;;;2.83;;
3095;SDS011;1558;42.700;23.360;2023-04-09T05:08:19;2.70;;;2.50;;
3095;SDS011;1558;42.700;23.360;2023-04-09T05:10:47;3.33;;;3.00;;
3095;SDS011;1558;42.700;23.360;2023-04-09T05:13:16;5.87;;;3.10;;
3095;SDS011;1558;42.700;23.360;2023-04-09T05:15:45;2.80;;;2.33;;
3095;SDS011;1558;42.700;23.360;2023-04-09T05:18:13;4.20;;;2.27;;
3095;SDS011;1558;42.700;23.360;2023-04-09T05:20:41;3.10;;;2.60;;
3095;SDS011;1558;42.700;23.360;2023-04-09T05:23:09;2.10;;;1.83;;
3095;SDS011;1558;42.700;23.360;2023-04-09T05:25:39;18.47;;;16.53;;
3095;SDS011;1558;42.700;23.360;2023-04-09T05:28:07;18.40;;;16.50;;
3095;SDS011;1558;42.700;23.360;2023-04-09T05:30:36;18.67;;;16.77;;
3095;SDS011;1558;42.700;23.360;2023-04-09T05:33:04;20.03;;;17.50;;
3095;SDS011;1558;42.700;23.360;2023-04-09T05:35:32;19.80;;;17.13;;
3095;SDS011;1558;42.700;23.360;2023-04-09T05:38:04;17.20;;;15.40;;
3095;SDS011;1558;42.700;23.360;2023-04-09T05:40:32;17.27;;;15.47;;
3095;SDS011;1558;42.700;23.360;2023-04-09T05:43:04;19.87;;;17.77;;
3095;SDS011;1558;42.700;23.360;2023-04-09T05:45:32;19.87;;;17.17;;
3095;SDS011;1558;42.700;23.360;2023-04-09T05:48:00;18.80;;;16.80;;
3095;SDS011;1558;42.700;23.360;2023-04-09T05:50:28;19.50;;;17.40;;
3095;SDS011;1558;42.700;23.360;2023-04-09T05:53:09;18.47;;;16.53;;
3095;SDS011;1558;42.700;23.360;2023-04-09T05:55:38;17.63;;;15.53;;
3095;SDS011;1558;42.700;23.360;2023-04-09T05:58:07;21.40;;;18.50;;
3095;SDS011;1558;42.700;23.360;2023-04-09T06:00:36;18.97;;;16.97;;
3095;SDS011;1558;42.700;23.360;2023-04-09T06:03:04;16.87;;;15.17;;
3095;SDS011;1558;42.700;23.360;2023-04-09T06:05:32;18.90;;;16.90;;
3095;SDS011;1558;42.700;23.360;2023-04-09T06:08:00;18.47;;;16.57;;
3095;SDS011;1558;42.700;23.360;2023-04-09T06:10:30;16.23;;;14.63;;
3095;SDS011;1558;42.700;23.360;2023-04-09T06:12:59;16.67;;;14.97;;
3095;SDS011;1558;42.700;23.360;2023-04-09T06:15:29;16.43;;;14.77;;
3095;SDS011;1558;42.700;23.360;2023-04-09T06:17:57;17.90;;;16.00;;
3095;SDS011;1558;42.700;23.360;2023-04-09T06:20:25;16.83;;;15.13;;
3095;SDS011;1558;42.700;23.360;2023-04-09T06:22:53;17.90;;;16.20;;
3095;SDS011;1558;42.700;23.360;2023-04-09T06:25:21;16.67;;;14.97;;
3095;SDS011;1558;42.700;23.360;2023-04-09T06:27:49;16.07;;;14.37;;
3095;SDS011;1558;42.700;23.360;2023-04-09T06:30:17;16.77;;;14.83;;
3095;SDS011;1558;42.700;23.360;2023-04-09T06:32:47;15.80;;;14.30;;
3095;SDS011;1558;42.700;23.360;2023-04-09T06:35:20;16.20;;;14.67;;
3095;SDS011;1558;42.700;23.360;2023-04-09T06:37:48;15.87;;;14.37;;
3095;SDS011;1558;42.700;23.360;2023-04-09T06:40:16;13.93;;;12.53;;
3095;SDS011;1558;42.700;23.360;2023-04-09T06:42:48;14.27;;;12.87;;
3095;SDS011;1558;42.700;23.360;2023-04-09T06:45:16;14.00;;;12.60;;
3095;SDS011;1558;42.700;23.360;2023-04-09T06:47:44;15.57;;;14.13;;
3095;SDS011;1558;42.700;23.360;2023-04-09T06:50:14;13.73;;;12.23;;
3095;SDS011;1558;42.700;23.360;2023-04-09T06:52:42;14.73;;;13.23;;
3095;SDS011;1558;42.700;23.360;2023-04-09T06:55:10;15.00;;;13.57;;
3095;SDS011;1558;42.700;23.360;2023-04-09T06:57:39;16.23;;;14.73;;
3095;SDS011;1558;42.700;23.360;2023-04-09T07:00:07;14.00;;;12.50;;
3095;SDS011;1558;42.700;23.360;2023-04-09T07:02:36;16.13;;;14.53;;
3095;SDS011;1558;42.700;23.360;2023-04-09T07:05:07;14.70;;;13.20;;
3095;SDS011;1558;42.700;23.360;2023-04-09T07:07:35;15.70;;;14.20;;
3095;SDS011;1558;42.700;23.360;2023-04-09T07:10:04;14.87;;;13.40;;
3095;SDS011;1558;42.700;23.360;2023-04-09T07:12:33;14.60;;;13.13;;
3095;SDS011;1558;42.700;23.360;2023-04-09T07:15:03;14.33;;;12.83;;
3095;SDS011;1558;42.700;23.360;2023-04-09T07:17:33;15.47;;;13.93;;
3095;SDS011;1558;42.700;23.360;2023-04-09T07:20:02;14.73;;;13.20;;
3095;SDS011;1558;42.700;23.360;2023-04-09T07:22:32;15.67;;;12.33;;
3095;SDS011;1558;42.700;23.360;2023-04-09T07:25:00;12.40;;;11.07;;
3095;SDS011;1558;42.700;23.360;2023-04-09T07:27:28;15.13;;;13.50;;
3095;SDS011;1558;42.700;23.360;2023-04-09T07:29:57;12.60;;;11.33;;
3095;SDS011;1558;42.700;23.360;2023-04-09T07:32:26;13.20;;;11.90;;
3095;SDS011;1558;42.700;23.360;2023-04-09T07:34:54;14.00;;;12.60;;
3095;SDS011;1558;42.700;23.360;2023-04-09T07:37:24;16.37;;;14.67;;
3095;SDS011;1558;42.700;23.360;2023-04-09T07:39:55;13.73;;;12.30;;
3095;SDS011;1558;42.700;23.360;2023-04-09T07:42:23;12.67;;;11.37;;
3095;SDS011;1558;42.700;23.360;2023-04-09T07:44:51;13.50;;;12.30;;
3095;SDS011;1558;42.700;23.360;2023-04-09T07:47:20;10.70;;;9.60;;
3095;SDS011;1558;42.700;23.360;2023-04-09T07:49:49;12.70;;;11.40;;
3095;SDS011;1558;42.700;23.360;2023-04-09T07:52:17;15.03;;;13.63;;
3095;SDS011;1558;42.700;23.360;2023-04-09T07:54:46;14.17;;;12.40;;
3095;SDS011;1558;42.700;23.360;2023-04-09T07:57:15;13.70;;;12.40;;
3095;SDS011;1558;42.700;23.360;2023-04-09T07:59:44;13.53;;;12.23;;
3095;SDS011;1558;42.700;23.360;2023-04-09T08:02:14;13.90;;;12.50;;
3095;SDS011;1558;42.700;23.360;2023-04-09T08:04:43;14.70;;;13.30;;
3095;SDS011;1558;42.700;23.360;2023-04-09T08:07:11;14.63;;;13.13;;
3095;SDS011;1558;42.700;23.360;2023-04-09T08:09:39;14.13;;;12.73;;
3095;SDS011;1558;42.700;23.360;2023-04-09T08:12:07;16.57;;;14.50;;
3095;SDS011;1558;42.700;23.360;2023-04-09T08:14:37;13.17;;;11.80;;
3095;SDS011;1558;42.700;23.360;2023-04-09T08:17:06;10.83;;;9.73;;
3095;SDS011;1558;42.700;23.360;2023-04-09T08:19:34;13.57;;;12.23;;
3095;SDS011;1558;42.700;23.360;2023-04-09T08:22:20;13.10;;;11.87;;
3095;SDS011;1558;42.700;23.360;2023-04-09T08:24:49;12.83;;;11.53;;
3095;SDS011;1558;42.700;23.360;2023-04-09T08:27:18;14.17;;;12.70;;
3095;SDS011;1558;42.700;23.360;2023-04-09T08:29:48;15.13;;;13.63;;
3095;SDS011;1558;42.700;23.360;2023-04-09T08:32:16;13.80;;;12.40;;
3095;SDS011;1558;42.700;23.360;2023-04-09T08:34:45;14.13;;;12.63;;
3095;SDS011;1558;42.700;23.360;2023-04-09T08:37:13;14.53;;;12.57;;
3095;SDS011;1558;42.700;23.360;2023-04-09T08:39:42;15.27;;;13.77;;
3095;SDS011;1558;42.700;23.360;2023-04-09T08:42:10;14.73;;;13.33;;
3095;SDS011;1558;42.700;23.360;2023-04-09T08:44:44;12.37;;;11.17;;
3095;SDS011;1558;42.700;23.360;2023-04-09T08:47:14;14.10;;;12.70;;
3095;SDS011;1558;42.700;23.360;2023-04-09T08:49:42;13.10;;;11.50;;
3095;SDS011;1558;42.700;23.360;2023-04-09T08:52:11;13.80;;;12.40;;
3095;SDS011;1558;42.700;23.360;2023-04-09T08:54:41;10.93;;;9.70;;
3095;SDS011;1558;42.700;23.360;2023-04-09T08:57:10;10.87;;;9.70;;
3095;SDS011;1558;42.700;23.360;2023-04-09T08:59:39;11.03;;;10.03;;
3095;SDS011;1558;42.700;23.360;2023-04-09T09:02:07;12.00;;;10.80;;
3095;SDS011;1558;42.700;23.360;2023-04-09T09:04:45;10.40;;;9.40;;
3095;SDS011;1558;42.700;23.360;2023-04-09T09:07:13;13.03;;;10.83;;
3095;SDS011;1558;42.700;23.360;2023-04-09T09:09:49;12.13;;;10.93;;
3095;SDS011;1558;42.700;23.360;2023-04-09T09:17:53;11.90;;;10.80;;
3095;SDS011;1558;42.700;23.360;2023-04-09T09:20:24;10.67;;;9.67;;
3095;SDS011;1558;42.700;23.360;2023-04-09T09:22:53;10.60;;;9.50;;
3095;SDS011;1558;42.700;23.360;2023-04-09T09:25:23;11.00;;;10.00;;
3095;SDS011;1558;42.700;23.360;2023-04-09T09:27:52;9.90;;;9.00;;
3095;SDS011;1558;42.700;23.360;2023-04-09T09:30:20;14.57;;;10.33;;
3095;SDS011;1558;42.700;23.360;2023-04-09T09:32:50;11.40;;;10.30;;
3095;SDS011;1558;42.700;23.360;2023-04-09T09:35:20;11.67;;;9.60;;
3095;SDS011;1558;42.700;23.360;2023-04-09T09:38:00;11.17;;;10.07;;
3095;SDS011;1558;42.700;23.360;2023-04-09T09:40:30;11.60;;;10.37;;
3095;SDS011;1558;42.700;23.360;2023-04-09T09:42:58;12.03;;;10.93;;
3095;SDS011;1558;42.700;23.360;2023-04-09T09:45:26;13.00;;;11.80;;
3095;SDS011;1558;42.700;23.360;2023-04-09T09:47:56;11.57;;;10.47;;
3095;SDS011;1558;42.700;23.360;2023-04-09T09:50:25;12.57;;;11.37;;
3095;SDS011;1558;42.700;23.360;2023-04-09T09:52:59;10.53;;;9.50;;
3095;SDS011;1558;42.700;23.360;2023-04-09T09:55:31;12.63;;;11.55;;
3095;SDS011;1558;42.700;23.360;2023-04-09T09:58:01;8.63;;;7.88;;
3095;SDS011;1558;42.700;23.360;2023-04-09T10:00:38;9.55;;;8.75;;
3095;SDS011;1558;42.700;23.360;2023-04-09T10:03:08;9.75;;;8.95;;
3095;SDS011;1558;42.700;23.360;2023-04-09T10:05:40;10.77;;;9.90;;
3095;SDS011;1558;42.700;23.360;2023-04-09T10:08:10;9.52;;;8.63;;
3095;SDS011;1558;42.700;23.360;2023-04-09T10:10:39;10.23;;;9.33;;
3095;SDS011;1558;42.700;23.360;2023-04-09T10:13:08;10.60;;;9.80;;
3095;SDS011;1558;42.700;23.360;2023-04-09T10:15:42;10.63;;;9.63;;
3095;SDS011;1558;42.700;23.360;2023-04-09T10:18:11;10.90;;;9.90;;
3095;SDS011;1558;42.700;23.360;2023-04-09T10:20:40;10.18;;;9.27;;
3095;SDS011;1558;42.700;23.360;2023-04-09T10:23:21;10.27;;;9.30;;
3095;SDS011;1558;42.700;23.360;2023-04-09T10:25:57;10.10;;;9.30;;
3095;SDS011;1558;42.700;23.360;2023-04-09T10:28:26;10.60;;;9.70;;
3095;SDS011;1558;42.700;23.360;2023-04-09T10:30:54;10.55;;;9.55;;
3095;SDS011;1558;42.700;23.360;2023-04-09T10:33:23;10.20;;;9.40;;
3095;SDS011;1558;42.700;23.360;2023-04-09T10:35:53;10.18;;;9.27;;
3095;SDS011;1558;42.700;23.360;2023-04-09T10:38:35;11.13;;;10.13;;
3095;SDS011;1558;42.700;23.360;2023-04-09T10:41:07;10.30;;;9.40;;
3095;SDS011;1558;42.700;23.360;2023-04-09T10:43:40;10.27;;;9.17;;
3095;SDS011;1558;42.700;23.360;2023-04-09T10:46:24;10.60;;;9.53;;
3095;SDS011;1558;42.700;23.360;2023-04-09T10:49:09;9.93;;;9.10;;
3095;SDS011;1558;42.700;23.360;2023-04-09T10:51:39;9.30;;;8.50;;
3095;SDS011;1558;42.700;23.360;2023-04-09T10:57:12;8.63;;;7.83;;
3095;SDS011;1558;42.700;23.360;2023-04-09T10:59:45;10.00;;;9.10;;
3095;SDS011;1558;42.700;23.360;2023-04-09T11:05:25;9.40;;;8.60;;
3095;SDS011;1558;42.700;23.360;2023-04-09T11:07:58;9.95;;;9.07;;
3095;SDS011;1558;42.700;23.360;2023-04-09T11:10:32;9.10;;;8.30;;
3095;SDS011;1558;42.700;23.360;2023-04-09T11:13:01;8.10;;;7.40;;
3095;SDS011;1558;42.700;23.360;2023-04-09T11:15:30;8.93;;;8.23;;
3095;SDS011;1558;42.700;23.360;2023-04-09T11:17:58;8.30;;;7.60;;
3095;SDS011;1558;42.700;23.360;2023-04-09T11:20:27;10.07;;;9.17;;
3095;SDS011;1558;42.700;23.360;2023-04-09T11:22:56;8.17;;;7.47;;
3095;SDS011;1558;42.700;23.360;2023-04-09T11:25:26;8.33;;;7.63;;
3095;SDS011;1558;42.700;23.360;2023-04-09T11:27:58;7.50;;;6.87;;
3095;SDS011;1558;42.700;23.360;2023-04-09T11:30:28;8.20;;;7.50;;
3095;SDS011;1558;42.700;23.360;2023-04-09T11:32:57;8.60;;;7.90;;
3095;SDS011;1558;42.700;23.360;2023-04-09T11:35:25;8.30;;;7.60;;
3095;SDS011;1558;42.700;23.360;2023-04-09T11:37:53;8.60;;;7.80;;
3095;SDS011;1558;42.700;23.360;2023-04-09T11:40:22;8.67;;;7.97;;
3095;SDS011;1558;42.700;23.360;2023-04-09T11:42:54;7.73;;;7.00;;
3095;SDS011;1558;42.700;23.360;2023-04-09T11:45:25;8.93;;;8.13;;
3095;SDS011;1558;42.700;23.360;2023-04-09T11:47:54;8.47;;;7.77;;
3095;SDS011;1558;42.700;23.360;2023-04-09T11:50:22;9.30;;;8.50;;
3095;SDS011;1558;42.700;23.360;2023-04-09T11:52:53;9.23;;;8.43;;
3095;SDS011;1558;42.700;23.360;2023-04-09T11:55:22;7.00;;;6.30;;
3095;SDS011;1558;42.700;23.360;2023-04-09T11:57:51;6.23;;;5.63;;
3095;SDS011;1558;42.700;23.360;2023-04-09T12:00:25;6.30;;;5.70;;
3095;SDS011;1558;42.700;23.360;2023-04-09T12:03:00;5.93;;;5.37;;
3095;SDS011;1558;42.700;23.360;2023-04-09T12:05:30;6.90;;;6.30;;
3095;SDS011;1558;42.700;23.360;2023-04-09T12:08:00;5.60;;;5.20;;
3095;SDS011;1558;42.700;23.360;2023-04-09T12:10:31;6.77;;;6.17;;
3095;SDS011;1558;42.700;23.360;2023-04-09T12:13:00;6.53;;;5.90;;
3095;SDS011;1558;42.700;23.360;2023-04-09T12:15:31;5.53;;;5.03;;
3095;SDS011;1558;42.700;23.360;2023-04-09T12:18:01;8.07;;;5.63;;
3095;SDS011;1558;42.700;23.360;2023-04-09T12:20:32;5.93;;;5.43;;
3095;SDS011;1558;42.700;23.360;2023-04-09T12:23:03;6.80;;;6.20;;
3095;SDS011;1558;42.700;23.360;2023-04-09T12:25:33;6.77;;;6.17;;
3095;SDS011;1558;42.700;23.360;2023-04-09T12:28:02;6.17;;;5.50;;
3095;SDS011;1558;42.700;23.360;2023-04-09T12:30:32;5.60;;;5.17;;
3095;SDS011;1558;42.700;23.360;2023-04-09T12:33:04;6.00;;;5.50;;
3095;SDS011;1558;42.700;23.360;2023-04-09T12:35:36;5.93;;;5.47;;
3095;SDS011;1558;42.700;23.360;2023-04-09T12:38:04;6.57;;;5.97;;
3095;SDS011;1558;42.700;23.360;2023-04-09T12:40:33;6.30;;;5.73;;
3095;SDS011;1558;42.700;23.360;2023-04-09T12:43:02;5.27;;;4.87;;
3095;SDS011;1558;42.700;23.360;2023-04-09T12:45:31;7.03;;;6.43;;
3095;SDS011;1558;42.700;23.360;2023-04-09T12:48:01;6.37;;;5.77;;
3095;SDS011;1558;42.700;23.360;2023-04-09T12:50:29;7.97;;;7.30;;
3095;SDS011;1558;42.700;23.360;2023-04-09T12:52:57;6.80;;;6.23;;
3095;SDS011;1558;42.700;23.360;2023-04-09T12:55:25;6.53;;;6.03;;
3095;SDS011;1558;42.700;23.360;2023-04-09T12:57:53;7.00;;;6.10;;
3095;SDS011;1558;42.700;23.360;2023-04-09T13:00:22;7.27;;;6.57;;
3095;SDS011;1558;42.700;23.360;2023-04-09T13:02:51;7.13;;;6.53;;
3095;SDS011;1558;42.700;23.360;2023-04-09T13:05:25;7.37;;;6.77;;
3095;SDS011;1558;42.700;23.360;2023-04-09T13:07:59;7.47;;;6.77;;
3095;SDS011;1558;42.700;23.360;2023-04-09T13:10:29;7.50;;;6.80;;
3095;SDS011;1558;42.700;23.360;2023-04-09T13:13:03;7.17;;;6.57;;
3095;SDS011;1558;42.700;23.360;2023-04-09T13:15:37;6.40;;;5.80;;
3095;SDS011;1558;42.700;23.360;2023-04-09T13:18:15;7.53;;;6.83;;
3095;SDS011;1558;42.700;23.360;2023-04-09T13:20:43;7.30;;;6.60;;
3095;SDS011;1558;42.700;23.360;2023-04-09T13:23:13;6.57;;;5.97;;
3095;SDS011;1558;42.700;23.360;2023-04-09T13:25:41;7.53;;;6.83;;
3095;SDS011;1558;42.700;23.360;2023-04-09T13:28:12;6.80;;;6.20;;
3095;SDS011;1558;42.700;23.360;2023-04-09T13:30:41;6.90;;;6.30;;
3095;SDS011;1558;42.700;23.360;2023-04-09T13:33:13;7.20;;;6.53;;
3095;SDS011;1558;42.700;23.360;2023-04-09T13:35:41;8.33;;;7.53;;
3095;SDS011;1558;42.700;23.360;2023-04-09T13:38:09;9.00;;;8.07;;
3095;SDS011;1558;42.700;23.360;2023-04-09T13:40:37;8.30;;;7.53;;
3095;SDS011;1558;42.700;23.360;2023-04-09T13:43:07;7.67;;;7.00;;
3095;SDS011;1558;42.700;23.360;2023-04-09T13:45:35;8.40;;;7.60;;
3095;SDS011;1558;42.700;23.360;2023-04-09T13:48:03;8.27;;;7.47;;
3095;SDS011;1558;42.700;23.360;2023-04-09T13:50:34;8.23;;;7.43;;
3095;SDS011;1558;42.700;23.360;2023-04-09T13:53:02;13.43;;;12.17;;
3095;SDS011;1558;42.700;23.360;2023-04-09T13:55:31;10.30;;;9.30;;
3095;SDS011;1558;42.700;23.360;2023-04-09T13:57:59;10.03;;;9.13;;
3095;SDS011;1558;42.700;23.360;2023-04-09T14:00:27;9.23;;;8.40;;
3095;SDS011;1558;42.700;23.360;2023-04-09T14:02:55;9.50;;;8.67;;
3095;SDS011;1558;42.700;23.360;2023-04-09T14:05:23;10.60;;;9.60;;
3095;SDS011;1558;42.700;23.360;2023-04-09T14:07:52;10.67;;;9.77;;
3095;SDS011;1558;42.700;23.360;2023-04-09T14:10:21;11.20;;;10.20;;
3095;SDS011;1558;42.700;23.360;2023-04-09T14:12:50;10.57;;;9.60;;
3095;SDS011;1558;42.700;23.360;2023-04-09T14:15:18;11.63;;;10.43;;
3095;SDS011;1558;42.700;23.360;2023-04-09T14:17:47;11.00;;;10.10;;
3095;SDS011;1558;42.700;23.360;2023-04-09T14:20:16;10.27;;;9.37;;
3095;SDS011;1558;42.700;23.360;2023-04-09T14:22:45;10.77;;;9.87;;
3095;SDS011;1558;42.700;23.360;2023-04-09T14:25:16;12.27;;;11.07;;
3095;SDS011;1558;42.700;23.360;2023-04-09T14:27:44;11.27;;;10.27;;
3095;SDS011;1558;42.700;23.360;2023-04-09T14:30:12;11.90;;;10.90;;
3095;SDS011;1558;42.700;23.360;2023-04-09T14:32:40;10.90;;;9.90;;
3095;SDS011;1558;42.700;23.360;2023-04-09T14:35:08;11.37;;;10.37;;
3095;SDS011;1558;42.700;23.360;2023-04-09T14:37:36;9.47;;;8.67;;
3095;SDS011;1558;42.700;23.360;2023-04-09T14:40:07;8.60;;;7.80;;
3095;SDS011;1558;42.700;23.360;2023-04-09T14:42:37;8.00;;;7.30;;
3095;SDS011;1558;42.700;23.360;2023-04-09T14:45:06;9.20;;;8.30;;
3095;SDS011;1558;42.700;23.360;2023-04-09T14:47:34;7.97;;;7.27;;
3095;SDS011;1558;42.700;23.360;2023-04-09T14:50:03;8.30;;;7.50;;
3095;SDS011;1558;42.700;23.360;2023-04-09T14:52:31;7.53;;;6.83;;
3095;SDS011;1558;42.700;23.360;2023-04-09T14:54:59;8.37;;;7.57;;
3095;SDS011;1558;42.700;23.360;2023-04-09T14:57:27;9.00;;;8.20;;
3095;SDS011;1558;42.700;23.360;2023-04-09T14:59:58;9.33;;;8.43;;
3095;SDS011;1558;42.700;23.360;2023-04-09T15:02:26;11.13;;;8.23;;
3095;SDS011;1558;42.700;23.360;2023-04-09T15:04:54;8.83;;;8.03;;
3095;SDS011;1558;42.700;23.360;2023-04-09T15:07:23;8.07;;;7.37;;
3095;SDS011;1558;42.700;23.360;2023-04-09T15:09:51;8.50;;;7.73;;
3095;SDS011;1558;42.700;23.360;2023-04-09T15:12:20;7.10;;;6.40;;
3095;SDS011;1558;42.700;23.360;2023-04-09T15:14:49;7.57;;;6.97;;
3095;SDS011;1558;42.700;23.360;2023-04-09T15:17:18;8.37;;;7.67;;
3095;SDS011;1558;42.700;23.360;2023-04-09T15:19:46;9.13;;;8.33;;